Weather observations for the past three days for
Summerville Airport
Imperial (Metric)
Date Time (edt) Wind (mph) Vis. (mi.) Weather Sky Cond. Temperature (ºF) Relative Humidity Wind Chill (°F) Heat Index (°F) Pressure Precipitation (in)
Air Dwpt 6 hour altimeter (in) sea level (mb) 1 hr 3 hr 6 hr
Max. Min.
04 23:35 Calm 10.00 Fair CLR 57.2 51.8 82% 30.04 0.0
04 23:15 Calm 10.00 Fair CLR 57.2 51.8 82% 30.04 0.0
04 22:55 Calm 10.00 Fair CLR 59 50 72% 30.04 0.0
04 22:35 Calm 10.00 Fair CLR 60.8 50 68% 30.03 0.0
04 22:15 Calm 10.00 Fair CLR 62.6 50 64% 30.03 0.0
04 21:55 Calm 10.00 Fair CLR 62.6 50 64% 30.03 0.0
04 21:35 Calm 10.00 Fair CLR 62.6 48.2 60% 30.02 0.0
04 21:15 Calm 10.00 Fair CLR 64.4 48.2 56% 30.03 0.0
04 20:55 Calm 10.00 Fair CLR 66.2 48.2 52% 30.02 0.0
04 20:35 S 3 10.00 Fair CLR 66.2 48.2 52% 30.01 0.0
04 20:15 Calm 9.00 Fair CLR 68 46.4 46% 30.01 0.0
04 19:55 Calm 9.00 Fair CLR 69.8 46.4 43% 30.01 0.0
04 19:35 Vrbl 6 10.00 Fair CLR 69.8 48.2 46% 30.01 0.0
04 19:15 Vrbl 6 G 14 10.00 Fair CLR 71.6 48.2 44% 30 0.0
04 18:55 S 9 G 15 9.00 Fair CLR 73.4 50 44% 30 0.0
04 18:35 Vrbl 7 G 17 9.00 Fair CLR 73.4 50 44% 30 0.0
04 18:15 Calm 10.00 Fair CLR 73.4 50 44% 30 0.0
04 17:55 S 6 G 15 9.00 Fair CLR 73.4 50 44% 30 0.0
04 17:35 S 9 G 17 9.00 Fair CLR 75.2 48.2 39% 77 30 0.0
04 17:15 S 13 G 20 9.00 Fair CLR 75.2 48.2 39% 77 29.99 0.0
04 16:55 S 13 G 21 9.00 Fair CLR 77 48.2 36% 78 29.99 0.0
04 16:35 S 10 G 17 9.00 Fair CLR 77 48.2 36% 78 29.99 0.0
04 16:15 Vrbl 6 G 12 9.00 Fair CLR 78.8 46.4 32% 79 29.99 0.0
04 15:55 Calm 9.00 Fair CLR 78.8 42.8 28% 78 30 0.0
04 15:35 Vrbl 5 9.00 Fair CLR 77 44.6 32% 78 30.01 0.0
04 15:15 Calm 9.00 Fair CLR 77 42.8 30% 78 30.01 0.0
04 14:55 Calm 9.00 Fair CLR 77 42.8 30% 78 30.02 0.0
04 14:35 Calm 9.00 Fair CLR 77 44.6 32% 78 30.03 0.0
04 14:15 Calm 9.00 Fair CLR 77 42.8 30% 78 30.03 0.0
04 13:55 Vrbl 5 G 12 9.00 Fair CLR 77 44.6 32% 78 30.03 0.0
04 13:35 Calm 9.00 Fair CLR 75.2 44.6 34% 77 30.04 0.0
04 13:15 Calm 9.00 Fair CLR 75.2 42.8 31% 77 30.04 0.0
04 12:55 Vrbl 6 8.00 Fair CLR 75.2 41 29% 77 30.05 0.0
04 12:35 Calm 9.00 Fair CLR 75.2 44.6 34% 77 30.06 0.0
04 12:15 Calm 10.00 Fair CLR 73.4 44.6 36% 30.06 0.0
04 11:55 Calm 9.00 Fair CLR 73.4 46.4 38% 30.06 0.0
04 11:35 Calm 9.00 Fair CLR 71.6 51.8 50% 30.07 0.0
04 11:15 Calm 9.00 Fair CLR 69.8 51.8 53% 30.06 0.0
04 10:55 Vrbl 6 9.00 Fair CLR 69.8 51.8 53% 30.07 0.0
04 10:35 W 5 9.00 Fair CLR 68 50 53% 30.07 0.0
04 10:15 Calm 9.00 Fair CLR 68 51.8 56% 30.08 0.0
04 09:55 W 7 9.00 Fair CLR 66.2 51.8 60% 30.08 0.0
04 09:35 Vrbl 7 10.00 Fair CLR 64.4 53.6 68% 30.08 0.0
04 09:15 Calm 9.00 Fair CLR 62.6 53.6 73% 30.08 0.0
04 08:55 Calm 10.00 Fair CLR 60.8 55.4 83% 30.08 0.0
04 08:35 Calm 9.00 Fair CLR 57.2 53.6 88% 30.08 0.0
04 07:55 Calm 9.00 Fair CLR 50 50 100% 30.07 0.0
04 07:35 Calm 9.00 Fair CLR 48.2 48.2 100% 30.06 0.0
04 07:15 Calm 10.00 Fair CLR 46.4 46.4 100% 30.06 0.0
04 06:55 Calm 10.00 Fair CLR 46.4 44.6 93% 30.06 0.0
04 06:35 Calm 10.00 Fair CLR 46.4 46.4 100% 30.05 0.0
04 06:15 Calm 10.00 Fair CLR 46.4 46.4 100% 30.06 0.0
04 05:55 Calm 10.00 Fair CLR 46.4 46.4 100% 30.05 0.0
04 05:35 Calm 10.00 Fair CLR 46.4 46.4 100% 30.05 0.0
04 05:15 Calm 10.00 Fair CLR 46.4 46.4 100% 30.05 0.0
04 04:55 Calm 10.00 Fair CLR 48.2 46.4 94% 30.05 0.0
04 04:35 Calm 10.00 Fair CLR 48.2 46.4 94% 30.05 0.0
04 04:15 Calm 10.00 Fair CLR 48.2 48.2 100% 30.06 0.0
04 03:55 Calm 10.00 Fair CLR 48.2 48.2 100% 30.07 0.0
04 03:35 Calm 10.00 Fair CLR 48.2 48.2 100% 30.07 0.0
04 03:15 Calm 10.00 Fair CLR 48.2 48.2 100% 30.07 0.0
04 02:55 Calm 10.00 Fair CLR 50 48.2 94% 30.07 0.0
04 02:35 Calm 10.00 Fair CLR 50 48.2 94% 30.07 0.0
04 02:15 Calm 10.00 Fair CLR 50 50 100% 30.08 0.0
04 01:55 Calm 10.00 Fair CLR 50 50 100% 30.08 0.0
04 01:35 Calm 10.00 Fair CLR 50 50 100% 30.08 0.0
04 01:15 Calm 10.00 Fair CLR 51.8 50 94% 30.08 0.0
04 00:55 Calm 10.00 Fair CLR 51.8 50 94% 30.08 0.0
04 00:35 Calm 9.00 Fair CLR 51.8 50 94% 30.08 0.0
04 00:15 Calm 10.00 Fair CLR 51.8 50 94% 30.08 0.0
03 23:55 Calm 9.00 Fair CLR 51.8 50 94% 30.08 0.0
03 23:35 Calm 9.00 Fair CLR 53.6 50 88% 30.08 0.0
03 23:15 Calm 9.00 Fair CLR 53.6 50 88% 30.08 0.0
03 22:55 Calm 10.00 Fair CLR 55.4 50 82% 30.08 0.0
03 22:35 Calm 10.00 Fair CLR 55.4 50 82% 30.08 0.0
03 22:15 Calm 10.00 Fair CLR 57.2 50 77% 30.07 0.0
03 21:55 Calm 10.00 Fair CLR 57.2 50 77% 30.07 0.0
03 21:35 Calm 10.00 A Few Clouds FEW060 59 50 72% 30.06 0.0
03 21:15 Calm 10.00 A Few Clouds FEW060 59 50 72% 30.06 0.0
03 20:55 Calm 10.00 Fair CLR 62.6 50 64% 30.05 0.0
03 20:35 Calm 10.00 Fair CLR 62.6 50 64% 30.04 0.0
03 20:15 Calm 10.00 Fair CLR 62.6 50 64% 30.04 0.0
03 19:55 Calm 9.00 Fair CLR 64.4 48.2 56% 30.03 0.0
03 19:35 S 5 9.00 A Few Clouds FEW065 66.2 48.2 52% 30.03 0.0
03 19:15 S 6 9.00 Fair CLR 68 50 53% 30.02 0.0
03 18:55 S 7 9.00 A Few Clouds FEW065 68 50 53% 30.02 0.0
03 18:35 S 7 9.00 Partly Cloudy SCT060 SCT070 69.8 50 50% 30.02 0.0
03 18:15 Calm 9.00 Fair CLR 71.6 44.6 38% 30.02 0.0
03 17:55 Calm 9.00 Fair CLR 71.6 42.8 36% 30.02 0.0
03 17:35 Calm 9.00 A Few Clouds FEW065 71.6 42.8 36% 30.02 0.0
03 17:15 W 6 G 13 9.00 A Few Clouds FEW060 71.6 44.6 38% 30.02 0.0
03 16:55 W 5 10.00 Partly Cloudy SCT065 71.6 42.8 36% 30.02 0.0
03 16:35 Calm 9.00 Mostly Cloudy BKN065 69.8 42.8 38% 30.03 0.0
03 16:15 Calm 9.00 Mostly Cloudy BKN060 69.8 42.8 38% 30.04 0.0
03 15:55 Calm 10.00 A Few Clouds FEW060 69.8 44.6 40% 30.04 0.0
03 15:35 Calm 9.00 A Few Clouds FEW060 71.6 42.8 36% 30.05 0.0
03 15:15 Calm 9.00 A Few Clouds FEW060 69.8 42.8 38% 30.06 0.0
03 14:55 Calm 9.00 A Few Clouds FEW060 69.8 42.8 38% 30.08 0.0
03 14:35 Vrbl 6 10.00 Partly Cloudy SCT065 69.8 44.6 40% 30.08 0.0
03 14:15 N 8 9.00 Mostly Cloudy BKN060 BKN070 69.8 44.6 40% 30.09 0.0
03 13:55 N 7 9.00 Mostly Cloudy BKN060 BKN065 68 44.6 43% 30.1 0.0
03 13:35 Calm 10.00 Mostly Cloudy SCT050 BKN065 66.2 42.8 43% 30.1 0.0
03 13:15 Calm 9.00 Mostly Cloudy BKN050 BKN060 66.2 44.6 46% 30.1 0.0
03 12:55 Calm 9.00 Mostly Cloudy BKN049 BKN055 66.2 42.8 43% 30.11 0.0
03 12:35 N 7 10.00 A Few Clouds FEW048 66.2 44.6 46% 30.11 0.0
03 12:15 Calm 9.00 A Few Clouds FEW046 66.2 44.6 46% 30.11 0.0
03 11:55 Calm 9.00 A Few Clouds FEW045 64.4 44.6 49% 30.12 0.0
03 11:35 Calm 10.00 Partly Cloudy SCT039 64.4 44.6 49% 30.12 0.0
03 11:15 Calm 10.00 A Few Clouds FEW036 62.6 46.4 56% 30.12 0.0
03 10:55 N 6 8.00 Fair CLR 62.6 46.4 56% 30.13 0.0
03 10:35 N 5 9.00 Fair CLR 62.6 48.2 60% 30.13 0.0
03 10:15 NE 5 9.00 Fair CLR 60.8 50 68% 30.13 0.0
03 09:55 Calm 9.00 A Few Clouds FEW016 60.8 53.6 77% 30.11 0.0
03 09:35 NE 5 9.00 Fair CLR 59 53.6 82% 30.11 0.0
03 09:15 Calm 9.00 Fair CLR 57.2 53.6 88% 30.11 0.0
03 08:35 Calm 9.00 Fair CLR 53.6 51.8 94% 30.11 0.0
03 08:15 Calm 7.00 Fair CLR 51.8 50 94% 30.1 0.0
03 07:55 Calm 5.00 Fog/Mist CLR 48.2 48.2 100% 30.1 0.0
03 07:35 Calm 5.00 Fog/Mist CLR 46.4 46.4 100% 30.09 0.0
03 07:15 Calm 6.00 Fog/Mist CLR 44.6 44.6 100% 30.08 0.0
03 06:35 Calm 4.00 Fog/Mist CLR 44.6 44.6 100% 30.06 0.0
03 06:15 Calm 7.00 Fair CLR 44.6 44.6 100% 30.05 0.0
03 05:55 Calm 6.00 Fog/Mist CLR 44.6 44.6 100% 30.05 0.0
03 05:35 Calm 0.50 Fog/Mist VV005 44.6 44.6 100% 30.04 0.0
03 05:15 Calm 2.00 Fog/Mist SCT001 44.6 44.6 100% 30.04 0.0
03 04:55 Calm 1.00 Fog/Mist OVC001 44.6 44.6 100% 30.04 0.0
03 04:15 Calm 0.25 Fog OVC001 46.4 46.4 100% 30.03 0.0
03 03:55 Calm 0.25 Fog OVC002 46.4 46.4 100% 30.02 0.0
03 03:35 Calm 1.50 Fog/Mist OVC002 46.4 46.4 100% 30.01 0.0
03 03:15 Calm 1.50 Fog/Mist OVC001 48.2 48.2 100% 30.01 0.0
03 02:55 Calm 5.00 Fog/Mist OVC002 48.2 48.2 100% 30.01 0.0
03 02:35 Calm 6.00 Fog/Mist SCT002 BKN090 50 50 100% 30.01 0.0
03 02:15 Calm 4.00 Fog/Mist SCT090 48.2 48.2 100% 30.01 0.0
03 01:55 Calm 5.00 Fog/Mist FEW050 50 50 100% 30.01 0.0
03 01:35 Calm 6.00 Fog/Mist FEW050 50 50 100% 30.01 0.0
03 01:15 Calm 2.50 Fog/Mist FEW090 50 50 100% 30.01 0.0
03 00:55 Calm 5.00 Fog/Mist SCT090 50 50 100% 30 0.0
03 00:35 Calm 6.00 Fog/Mist SCT095 51.8 51.8 100% 29.99 0.0
03 00:15 Calm 5.00 Fog/Mist SCT080 BKN100 51.8 51.8 100% 29.99 0.0
02 23:55 Calm 5.00 Fog/Mist BKN080 51.8 51.8 100% 29.98 0.0
02 23:35 Calm 5.00 Fog/Mist FEW002 SCT080 51.8 51.8 100% 29.98 0.0
02 23:15 Calm 6.00 Fog/Mist SCT085 51.8 51.8 100% 29.97 0.0
02 22:55 Calm 6.00 Fog/Mist CLR 51.8 51.8 100% 29.96 0.0
02 22:35 Calm 7.00 A Few Clouds FEW044 FEW050 FEW110 53.6 53.6 100% 29.95 0.0
02 22:15 Calm 8.00 Partly Cloudy FEW044 SCT110 53.6 53.6 100% 29.94 0.0
02 21:55 N 3 9.00 Overcast OVC100 53.6 53.6 100% 29.94 0.0
02 21:35 Calm 10.00 Overcast OVC100 55.4 53.6 94% 29.93 0.0
02 21:15 Calm 10.00 Overcast OVC095 55.4 53.6 94% 29.92 0.0
02 20:55 N 3 10.00 Overcast FEW011 FEW075 OVC090 55.4 53.6 94% 29.91 0.0
02 20:35 N 7 9.00 Overcast FEW008 BKN012 OVC090 55.4 53.6 94% 29.91 0.0
02 20:15 Calm 8.00 Overcast BKN008 OVC011 55.4 55.4 100% 29.91 0.0
02 19:55 Calm 9.00 Overcast OVC007 55.4 55.4 100% 29.9 0.0
02 19:35 Calm 7.00 Overcast BKN009 BKN015 OVC075 55.4 55.4 100% 29.88 0.0
02 19:15 N 3 6.00 Fog/Mist SCT012 BKN055 OVC075 55.4 55.4 100% 29.88 0.0
02 18:55 N 6 3.00 Fog/Mist SCT014 BKN049 OVC060 55.4 53.6 94% 29.87 0.0
02 18:35 N 8 9.00 Overcast BKN010 OVC015 57.2 53.6 88% 29.88 0.0
02 18:15 Vrbl 6 8.00 Overcast OVC010 55.4 53.6 94% 29.87 0.0
02 17:55 N 9 4.00 Fog/Mist OVC010 55.4 55.4 100% 29.87 0.0
02 17:35 N 10 9.00 Overcast BKN012 OVC017 57.2 55.4 94% 29.86 0.0
02 17:15 N 10 9.00 Overcast FEW009 BKN012 OVC042 57.2 55.4 94% 29.85 0.0
02 16:55 N 12 10.00 Overcast FEW008 BKN013 OVC045 57.2 55.4 94% 29.84 0.0
02 16:35 N 9 6.00 Fog/Mist SCT007 SCT013 BKN044 57.2 55.4 94% 29.84 0.0
02 16:15 N 7 G 14 4.00 Light Rain Fog/Mist SCT008 SCT012 SCT039 57.2 57.2 100% 29.84 0.0
02 15:55 N 12 2.50 Fog/Mist BKN009 BKN038 BKN043 57.2 55.4 94% 29.84 0.0 0.02
02 15:35 N 8 G 15 2.00 Light Rain Fog/Mist BKN007 BKN012 OVC036 57.2 55.4 94% 29.85 0.0
02 15:15 N 13 1.00 Light Rain Fog/Mist BKN008 OVC014 57.2 55.4 94% 29.85 0.0
02 14:55 N 12 G 17 3.00 Light Rain Fog/Mist SCT007 BKN011 OVC025 59 57.2 94% 29.85 0.0 0.02
02 14:35 N 13 5.00 Light Rain Fog/Mist FEW008 BKN012 OVC017 59 57.2 94% 29.83 0.0
02 14:15 N 9 G 20 6.00 Light Rain Fog/Mist FEW007 BKN013 OVC019 59 57.2 94% 29.84 0.0
02 13:55 N 10 9.00 Overcast SCT007 BKN013 OVC019 59 59 100% 29.82 0.0 0.04
02 13:35 N 7 9.00 Light Rain SCT007 BKN014 OVC028 59 59 100% 29.83 0.0
02 13:15 N 7 3.00 Light Rain Fog/Mist FEW009 SCT013 OVC019 59 59 100% 29.84 0.0
02 12:55 NW 7 5.00 Light Rain Fog/Mist BKN008 BKN012 OVC018 59 57.2 94% 29.87 0.0 0.03
02 12:35 N 7 5.00 Light Rain Fog/Mist BKN007 OVC010 59 59 100% 29.84 0.0
02 12:15 N 8 8.00 Light Rain BKN005 BKN014 OVC019 59 57.2 94% 29.84 0.0
02 11:55 NE 5 3.00 Light Rain Fog/Mist SCT007 BKN015 OVC024 59 57.2 94% 29.85 0.0 0.05
02 11:35 N 5 3.00 Light Rain Fog/Mist FEW007 BKN012 OVC023 57.2 57.2 100% 29.88 0.0
02 11:15 N 7 4.00 Light Rain Fog/Mist FEW007 BKN011 OVC025 57.2 57.2 100% 29.88 0.0
02 10:55 N 6 2.00 Light Rain Fog/Mist FEW007 BKN025 OVC070 59 57.2 94% 29.87 0.0 0.12
02 10:35 N 6 1.50 Rain Fog/Mist BKN024 BKN028 OVC070 59 57.2 94% 29.87 0.0
02 10:15 N 7 2.50 Light Rain Fog/Mist SCT028 SCT032 OVC070 59 57.2 94% 29.88 0.0
02 09:55 N 7 G 14 2.50 Light Rain Fog/Mist SCT029 BKN033 OVC075 59 57.2 94% 29.87 0.0 0.15
02 09:35 N 6 1.25 Rain Fog/Mist FEW004 BKN025 OVC033 59 59 100% 29.86 0.0
02 09:15 N 6 1.50 Rain Fog/Mist SCT018 OVC024 59 57.2 94% 29.87 0.0
02 08:55 N 6 1.50 Rain Fog/Mist BKN018 BKN031 OVC046 59 59 100% 29.85 0.0 0.11
02 08:35 N 7 1.50 Rain Fog/Mist BKN011 BKN017 OVC035 59 57.2 94% 29.85 0.0
02 08:15 N 9 4.00 Light Rain Fog/Mist SCT010 BKN016 OVC090 60.8 59 94% 29.85 0.0
02 07:55 N 6 G 12 9.00 Overcast FEW006 SCT017 OVC095 60.8 60.8 100% 29.82 0.0
02 07:35 NE 7 9.00 Overcast SCT005 BKN013 OVC110 62.6 60.8 94% 29.81 0.0
02 07:15 N 7 4.00 Fog/Mist BKN004 BKN012 OVC018 62.6 62.6 100% 29.81 0.0
02 06:55 N 6 2.50 Light Rain Fog/Mist BKN004 BKN024 OVC031 62.6 62.6 100% 29.82 0.0 0.06
02 06:35 Calm 2.50 Light Rain Fog/Mist BKN004 BKN010 OVC023 62.6 62.6 100% 29.83 0.0
02 06:15 N 5 2.50 Light Rain Fog/Mist OVC004 62.6 62.6 100% 29.84 0.0
02 05:55 Calm 2.50 Light Rain Fog/Mist OVC004 62.6 62.6 100% 29.85 0.0 0.07
02 05:35 Calm 2.50 Light Rain Fog/Mist BKN003 OVC007 62.6 62.6 100% 29.86 0.0
02 05:15 Calm 3.00 Light Rain Fog/Mist BKN003 OVC007 62.6 62.6 100% 29.86 0.0
02 04:55 Calm 3.00 Light Rain Fog/Mist BKN003 OVC028 62.6 62.6 100% 29.84 0.0 0.04
02 04:35 Calm 3.00 Light Rain Fog/Mist BKN003 BKN006 OVC047 62.6 62.6 100% 29.85 0.0
02 04:15 Calm 3.00 Light Rain Fog/Mist OVC003 62.6 62.6 100% 29.85 0.0
02 03:55 Calm 3.00 Light Rain Fog/Mist BKN003 OVC007 62.6 62.6 100% 29.85 0.0 0.05
02 03:15 Calm 2.50 Light Rain Fog/Mist SCT002 BKN006 OVC045 62.6 62.6 100% 29.86 0.0
02 02:55 Calm 3.00 Light Rain Fog/Mist OVC005 62.6 62.6 100% 29.85 0.0 0.03
02 02:35 Calm 4.00 Light Rain Fog/Mist BKN005 OVC043 62.6 62.6 100% 29.86 0.0
02 02:15 Calm 3.00 Light Rain Fog/Mist FEW003 OVC043 62.6 62.6 100% 29.85 0.0
02 01:55 Calm 3.00 Light Rain Fog/Mist OVC043 62.6 62.6 100% 29.86 0.0 0.01
02 01:35 Calm 5.00 Fog/Mist FEW003 OVC042 62.6 62.6 100% 29.86 0.0
02 01:15 Calm 6.00 Fog/Mist FEW003 OVC044 62.6 62.6 100% 29.86 0.0
02 00:55 Calm 5.00 Fog/Mist SCT004 OVC046 62.6 62.6 100% 29.86 0.0
02 00:35 Calm 6.00 Light Rain Fog/Mist BKN003 OVC047 62.6 62.6 100% 29.87 0.0
02 00:15 Calm 6.00 Fog/Mist SCT003 BKN008 OVC049 64.4 62.6 94% 29.88 0.0
01 23:55 Calm 6.00 Fog/Mist OVC007 62.6 62.6 100% 29.88 0.0
Date Time (edt) Wind (mph) Vis. (mi.) Weather Sky Cond. Air Dwpt Max. Min. Relative Humidity Wind Chill (°F) Heat Index (°F) altimeter (in) sea level (mb) 1 hr 3 hr 6 hr
6 hour
Temperature (ºF) Pressure Precipitation (in)